createdAt,value
2018-03-21T00:02:05.401Z,99.90
2018-03-21T00:04:33.063Z,99.90
2018-03-21T00:07:01.053Z,99.90
2018-03-21T00:09:28.741Z,99.90
2018-03-21T00:11:56.444Z,99.90
2018-03-21T00:14:24.090Z,99.90
2018-03-21T00:16:52.560Z,99.90
2018-03-21T00:19:20.225Z,99.90
2018-03-21T00:21:47.906Z,99.90
2018-03-21T00:24:16.363Z,99.90
2018-03-21T00:26:44.754Z,99.90
2018-03-21T00:29:12.396Z,99.90
2018-03-21T00:31:40.040Z,99.90
2018-03-21T00:34:07.678Z,99.90
2018-03-21T00:36:36.052Z,99.90
2018-03-21T00:39:04.500Z,99.90
2018-03-21T00:41:32.168Z,99.90
2018-03-21T00:43:59.797Z,99.90
2018-03-21T00:46:27.539Z,99.90
2018-03-21T00:48:55.179Z,99.90
2018-03-21T00:51:24.274Z,99.90
2018-03-21T00:53:51.942Z,99.90
2018-03-21T00:56:19.603Z,99.90
2018-03-21T00:58:47.224Z,99.90
2018-03-21T01:01:14.920Z,99.90
2018-03-21T01:03:42.582Z,99.90
2018-03-21T01:06:10.242Z,99.90
2018-03-21T01:08:37.853Z,99.90
2018-03-21T01:11:05.486Z,99.90
2018-03-21T01:13:33.101Z,99.90
2018-03-21T01:16:00.758Z,99.90
2018-03-21T01:18:28.381Z,99.90
2018-03-21T01:20:56.353Z,99.90
2018-03-21T01:23:24.015Z,99.90
2018-03-21T01:25:51.689Z,99.90
2018-03-21T01:28:19.354Z,99.90
2018-03-21T01:30:47.003Z,99.90
2018-03-21T01:33:14.733Z,99.90
2018-03-21T01:35:42.391Z,99.90
2018-03-21T01:38:10.028Z,99.90
2018-03-21T01:40:37.698Z,99.90
2018-03-21T01:43:05.400Z,99.90
2018-03-21T01:45:33.814Z,99.90
2018-03-21T01:48:02.145Z,99.90
2018-03-21T01:50:29.856Z,99.90
2018-03-21T01:53:10.142Z,99.90
2018-03-21T01:55:37.823Z,99.90
2018-03-21T01:58:05.553Z,99.90
2018-03-21T02:00:34.179Z,99.90
2018-03-21T02:03:01.888Z,99.90
2018-03-21T02:05:29.523Z,99.90
2018-03-21T02:07:57.210Z,99.90
2018-03-21T02:10:24.895Z,99.90
2018-03-21T02:12:52.508Z,99.90
2018-03-21T02:15:20.470Z,99.90
2018-03-21T02:17:48.133Z,99.90
2018-03-21T02:20:15.781Z,99.90
2018-03-21T02:22:44.266Z,99.90
2018-03-21T02:25:12.734Z,99.90
2018-03-21T02:27:41.206Z,99.90
2018-03-21T02:30:08.889Z,99.90
2018-03-21T02:32:37.335Z,99.90
2018-03-21T02:35:05.006Z,99.90
2018-03-21T02:37:32.667Z,99.90
2018-03-21T02:40:00.317Z,99.90
2018-03-21T02:42:27.938Z,99.90
2018-03-21T02:44:55.575Z,99.90
2018-03-21T02:47:23.237Z,99.90
2018-03-21T02:49:51.016Z,99.90
2018-03-21T02:52:18.673Z,99.90
2018-03-21T02:54:47.145Z,99.90
2018-03-21T02:57:15.131Z,99.90
2018-03-21T02:59:42.758Z,99.90
2018-03-21T03:02:11.139Z,99.90
2018-03-21T03:04:39.554Z,99.90
2018-03-21T03:07:07.385Z,99.90
2018-03-21T03:09:35.075Z,99.90
2018-03-21T03:12:05.292Z,99.90
2018-03-21T03:14:32.934Z,99.90
2018-03-21T03:17:00.628Z,99.90
2018-03-21T03:19:29.051Z,99.90
2018-03-21T03:21:56.690Z,99.90
2018-03-21T03:24:25.274Z,99.90
2018-03-21T03:26:52.938Z,99.90
2018-03-21T03:29:20.565Z,99.90
2018-03-21T03:31:48.995Z,99.90
2018-03-21T03:34:17.345Z,99.90
2018-03-21T03:36:45.018Z,99.90
2018-03-21T03:39:13.739Z,99.90
2018-03-21T03:41:41.385Z,99.90
2018-03-21T03:44:09.021Z,99.90
2018-03-21T03:46:36.647Z,99.90
2018-03-21T03:49:04.975Z,99.90
2018-03-21T03:51:34.200Z,99.90
2018-03-21T03:54:02.622Z,99.90
2018-03-21T03:56:30.266Z,99.90
2018-03-21T03:58:58.641Z,99.90
2018-03-21T04:01:27.132Z,99.90
2018-03-21T04:03:54.784Z,99.90
2018-03-21T04:06:22.449Z,99.90
2018-03-21T04:08:50.875Z,99.90
2018-03-21T04:11:18.521Z,99.90
2018-03-21T04:13:46.126Z,99.90
2018-03-21T04:16:14.602Z,99.90
2018-03-21T04:18:42.285Z,99.90
2018-03-21T04:21:09.960Z,99.90
2018-03-21T04:23:38.533Z,99.90
2018-03-21T04:26:06.176Z,99.90
2018-03-21T04:28:33.836Z,99.90
2018-03-21T04:31:01.498Z,99.90
2018-03-21T04:33:29.140Z,99.90
2018-03-21T04:35:57.611Z,99.90
2018-03-21T04:38:25.274Z,99.90
2018-03-21T04:40:52.947Z,99.90
2018-03-21T04:43:20.604Z,99.90
2018-03-21T04:45:48.286Z,99.90
2018-03-21T04:48:17.481Z,99.90
2018-03-21T04:50:45.143Z,99.90
2018-03-21T04:53:13.480Z,99.90
2018-03-21T04:55:41.889Z,99.90
2018-03-21T04:58:10.318Z,99.90
2018-03-21T05:00:37.972Z,99.90
2018-03-21T05:03:05.589Z,99.90
2018-03-21T05:05:33.245Z,99.90
2018-03-21T05:08:00.857Z,99.90
2018-03-21T05:10:28.515Z,99.90
2018-03-21T05:12:56.173Z,99.90
2018-03-21T05:15:24.740Z,99.90
2018-03-21T05:17:52.423Z,99.90
2018-03-21T05:20:20.410Z,99.90
2018-03-21T05:22:48.071Z,99.90
2018-03-21T05:25:15.710Z,99.90
2018-03-21T05:27:43.378Z,99.90
2018-03-21T05:30:11.096Z,99.90
2018-03-21T05:32:38.771Z,99.90
2018-03-21T05:35:06.435Z,99.90
2018-03-21T05:37:34.102Z,99.90
2018-03-21T05:40:02.111Z,99.90
2018-03-21T05:42:30.616Z,99.90
2018-03-21T05:44:58.235Z,99.90
2018-03-21T05:47:25.896Z,99.90
2018-03-21T05:49:53.544Z,99.90
2018-03-21T05:52:21.209Z,99.90
2018-03-21T05:54:49.719Z,99.90
2018-03-21T05:57:17.350Z,99.90
2018-03-21T05:59:45.040Z,99.90
2018-03-21T06:02:12.703Z,99.90
2018-03-21T06:04:41.490Z,99.90
2018-03-21T06:07:09.159Z,99.90
2018-03-21T06:09:37.043Z,99.90
2018-03-21T06:12:05.581Z,99.90
2018-03-21T06:14:33.228Z,99.90
2018-03-21T06:17:00.934Z,99.90
2018-03-21T06:19:28.689Z,99.90
2018-03-21T06:21:56.349Z,99.90
2018-03-21T06:24:24.016Z,99.90
2018-03-21T06:26:51.698Z,99.90
2018-03-21T06:29:20.222Z,99.90
2018-03-21T06:31:47.892Z,99.90
2018-03-21T06:34:15.584Z,99.90
2018-03-21T06:36:43.981Z,99.90
2018-03-21T06:39:11.655Z,99.90
2018-03-21T06:41:39.644Z,99.90
2018-03-21T06:44:08.048Z,99.90
2018-03-21T06:46:35.659Z,99.90
2018-03-21T06:49:03.339Z,99.90
2018-03-21T06:51:31.017Z,99.90
2018-03-21T06:53:58.683Z,99.90
2018-03-21T06:56:26.673Z,99.90
2018-03-21T06:58:54.275Z,99.90
2018-03-21T07:01:22.682Z,99.90
2018-03-21T07:03:51.135Z,99.90
2018-03-21T07:06:18.773Z,99.90
2018-03-21T07:08:46.436Z,99.90
2018-03-21T07:11:14.070Z,99.90
2018-03-21T07:13:54.411Z,99.90
2018-03-21T07:16:34.634Z,99.90
2018-03-21T07:19:02.297Z,99.90
2018-03-21T07:21:30.575Z,99.90
2018-03-21T07:23:58.396Z,99.90
2018-03-21T07:26:26.074Z,99.90
2018-03-21T07:28:54.564Z,99.90
2018-03-21T07:31:23.246Z,99.90
2018-03-21T07:33:50.923Z,99.90
2018-03-21T07:36:19.098Z,99.90
2018-03-21T07:38:46.878Z,99.90
2018-03-21T07:41:14.515Z,99.90
2018-03-21T07:43:42.977Z,99.90
2018-03-21T07:46:10.591Z,99.90
2018-03-21T07:48:38.974Z,99.90
2018-03-21T07:51:06.638Z,99.90
2018-03-21T07:53:35.053Z,99.90
2018-03-21T07:56:02.649Z,99.90
2018-03-21T07:58:30.288Z,99.90
2018-03-21T08:00:57.932Z,99.90
2018-03-21T08:03:25.604Z,99.90
2018-03-21T08:05:53.258Z,99.90
2018-03-21T08:08:20.949Z,99.90
2018-03-21T08:10:48.643Z,99.90
2018-03-21T08:13:16.339Z,99.90
2018-03-21T08:15:44.718Z,99.90
2018-03-21T08:18:13.130Z,99.90
2018-03-21T08:20:40.812Z,99.90
2018-03-21T08:23:09.183Z,99.90
2018-03-21T08:25:36.816Z,99.90
2018-03-21T08:28:04.476Z,99.90
2018-03-21T08:30:32.144Z,99.90
2018-03-21T08:32:59.780Z,99.90
2018-03-21T08:35:27.508Z,99.90
2018-03-21T08:37:55.146Z,99.90
2018-03-21T08:40:23.668Z,99.90
2018-03-21T08:42:51.339Z,99.90
2018-03-21T08:45:18.986Z,99.90
2018-03-21T08:47:46.677Z,99.90
2018-03-21T08:50:14.295Z,99.90
2018-03-21T08:52:42.213Z,99.90
2018-03-21T08:55:09.887Z,99.90
2018-03-21T08:57:37.520Z,99.90
2018-03-21T09:00:05.960Z,99.90
2018-03-21T09:02:33.585Z,99.90
2018-03-21T09:05:02.044Z,99.90
2018-03-21T09:07:30.444Z,99.90
2018-03-21T09:09:58.868Z,99.90
2018-03-21T09:12:26.499Z,99.90
2018-03-21T09:14:54.864Z,97.50
2018-03-21T09:17:22.581Z,97.90
2018-03-21T09:19:50.305Z,99.90
2018-03-21T09:22:17.990Z,97.20
2018-03-21T09:24:46.389Z,96.40
2018-03-21T09:27:14.139Z,96.50
2018-03-21T09:29:42.568Z,95.20
2018-03-21T09:32:10.252Z,95.30
2018-03-21T09:34:37.904Z,92.80
2018-03-21T09:37:05.594Z,93.30
2018-03-21T09:39:33.236Z,90.50
2018-03-21T09:42:00.920Z,91.80
2018-03-21T09:44:28.863Z,90.40
2018-03-21T09:46:56.537Z,91.60
2018-03-21T09:49:24.953Z,86.20
2018-03-21T09:51:52.623Z,86.40
2018-03-21T09:54:21.062Z,88.00
2018-03-21T09:56:48.710Z,90.30
2018-03-21T09:59:16.371Z,92.60
2018-03-21T10:01:43.991Z,91.40
2018-03-21T10:04:12.545Z,90.10
2018-03-21T10:06:40.188Z,90.20
2018-03-21T10:09:08.560Z,90.10
2018-03-21T10:11:37.025Z,88.80
2018-03-21T10:14:04.697Z,89.30
2018-03-21T10:16:33.005Z,85.10
2018-03-21T10:19:00.639Z,90.10
2018-03-21T10:21:28.328Z,90.50
2018-03-21T10:23:55.993Z,93.00
2018-03-21T10:26:24.431Z,86.30
2018-03-21T10:28:52.106Z,87.20
2018-03-21T10:31:20.565Z,91.70
2018-03-21T10:33:48.178Z,91.90
2018-03-21T10:36:15.792Z,86.60
2018-03-21T10:38:44.017Z,90.30
2018-03-21T10:41:11.645Z,80.30
2018-03-21T10:43:39.289Z,84.30
2018-03-21T10:46:07.565Z,73.30
2018-03-21T10:48:35.215Z,78.10
2018-03-21T10:51:02.862Z,77.30
2018-03-21T10:53:31.377Z,73.10
2018-03-21T10:55:59.756Z,76.90
2018-03-21T10:58:28.135Z,78.10
2018-03-21T11:00:56.609Z,77.10
2018-03-21T11:03:24.240Z,76.00
2018-03-21T11:05:51.975Z,81.60
2018-03-21T11:08:21.217Z,78.00
2018-03-21T11:10:48.868Z,77.20
2018-03-21T11:13:16.535Z,71.30
2018-03-21T11:15:44.211Z,75.70
2018-03-21T11:18:12.049Z,72.30
2018-03-21T11:20:39.687Z,65.30
2018-03-21T11:23:07.548Z,69.40
2018-03-21T11:25:35.443Z,69.30
2018-03-21T11:28:03.034Z,72.20
2018-03-21T11:30:31.458Z,70.30
2018-03-21T11:32:59.111Z,76.20
2018-03-21T11:35:26.733Z,78.60
2018-03-21T11:37:55.122Z,70.80
2018-03-21T11:40:22.773Z,70.90
2018-03-21T11:42:51.205Z,71.70
2018-03-21T11:45:18.825Z,70.90
2018-03-21T11:47:47.241Z,71.70
2018-03-21T11:50:15.545Z,72.70
2018-03-21T11:52:43.180Z,73.50
2018-03-21T11:55:10.832Z,70.90
2018-03-21T11:57:39.220Z,69.40
2018-03-21T12:00:07.653Z,74.30
2018-03-21T12:02:35.268Z,73.50
2018-03-21T12:05:03.697Z,71.20
2018-03-21T12:07:31.358Z,71.20
2018-03-21T12:09:58.956Z,76.50
2018-03-21T12:12:27.819Z,69.10
2018-03-21T12:14:55.486Z,67.90
2018-03-21T12:17:23.109Z,74.10
2018-03-21T12:19:51.522Z,65.30
2018-03-21T12:22:19.221Z,66.50
2018-03-21T12:24:46.888Z,61.60
2018-03-21T12:27:14.726Z,58.90
2018-03-21T12:29:42.360Z,70.30
2018-03-21T12:32:10.817Z,68.60
2018-03-21T12:34:38.434Z,68.20
2018-03-21T12:37:06.078Z,68.30
2018-03-21T12:39:34.500Z,64.00
2018-03-21T12:42:02.132Z,63.60
2018-03-21T12:44:29.819Z,65.40
2018-03-21T12:46:58.218Z,67.30
2018-03-21T12:49:25.861Z,67.40
2018-03-21T12:51:54.262Z,59.20
2018-03-21T12:54:22.783Z,59.70
2018-03-21T12:56:50.434Z,72.40
2018-03-21T12:59:18.080Z,69.10
2018-03-21T13:01:45.755Z,72.40
2018-03-21T13:04:13.379Z,63.70
2018-03-21T13:06:41.834Z,65.50
2018-03-21T13:09:09.511Z,64.90
2018-03-21T13:11:37.175Z,67.00
2018-03-21T13:14:04.836Z,70.40
2018-03-21T13:16:32.468Z,72.30
2018-03-21T13:19:00.111Z,64.20
2018-03-21T13:21:28.490Z,63.40
2018-03-21T13:23:56.304Z,63.50
2018-03-21T13:26:25.130Z,65.20
2018-03-21T13:28:52.873Z,70.00
2018-03-21T13:31:20.563Z,68.40
2018-03-21T13:33:48.235Z,68.80
2018-03-21T13:36:15.858Z,63.20
2018-03-21T13:38:43.540Z,73.90
2018-03-21T13:41:11.195Z,62.30
2018-03-21T13:43:38.837Z,59.40
2018-03-21T13:46:07.213Z,65.50
2018-03-21T13:48:35.634Z,60.90
2018-03-21T13:51:03.246Z,61.40
2018-03-21T13:53:32.386Z,58.70
2018-03-21T13:56:00.848Z,59.70
2018-03-21T13:58:29.302Z,62.90
2018-03-21T14:00:56.926Z,63.00
2018-03-21T14:03:24.583Z,63.60
2018-03-21T14:05:52.401Z,64.50
2018-03-21T14:08:20.032Z,62.90
2018-03-21T14:10:47.793Z,63.70
2018-03-21T14:13:15.427Z,67.70
2018-03-21T14:15:43.814Z,61.00
2018-03-21T14:18:11.503Z,61.00
2018-03-21T14:20:39.891Z,69.80
2018-03-21T14:23:07.770Z,70.40
2018-03-21T14:25:35.422Z,68.70
2018-03-21T14:28:03.801Z,69.40
2018-03-21T14:30:32.223Z,72.80
2018-03-21T14:32:59.878Z,73.30
2018-03-21T14:35:27.579Z,75.10
2018-03-21T14:37:55.236Z,64.80
2018-03-21T14:40:22.869Z,66.30
2018-03-21T14:42:50.544Z,65.80
2018-03-21T14:45:18.187Z,68.50
2018-03-21T14:47:45.857Z,72.30
2018-03-21T14:50:13.482Z,67.80
2018-03-21T14:52:41.149Z,67.50
2018-03-21T14:55:09.747Z,65.00
2018-03-21T14:57:38.740Z,65.00
2018-03-21T15:00:06.363Z,64.90
2018-03-21T15:02:34.313Z,67.40
2018-03-21T15:05:01.969Z,68.00
2018-03-21T15:07:29.952Z,74.80
2018-03-21T15:09:57.598Z,73.30
2018-03-21T15:12:25.977Z,73.10
2018-03-21T15:14:54.406Z,73.10
2018-03-21T15:17:22.017Z,73.40
2018-03-21T15:19:49.687Z,74.90
2018-03-21T15:22:18.248Z,73.70
2018-03-21T15:24:45.899Z,73.70
2018-03-21T15:27:14.504Z,66.30
2018-03-21T15:29:42.172Z,70.20
2018-03-21T15:32:10.656Z,77.30
2018-03-21T15:34:39.215Z,76.60
2018-03-21T15:37:06.871Z,78.30
2018-03-21T15:39:34.550Z,79.50
2018-03-21T15:42:02.203Z,77.00
2018-03-21T15:44:29.858Z,76.50
2018-03-21T15:46:58.716Z,78.10
2018-03-21T15:49:27.300Z,80.60
2018-03-21T15:51:54.924Z,78.70
2018-03-21T15:54:22.578Z,82.00
2018-03-21T15:56:51.221Z,86.10
2018-03-21T15:59:18.868Z,83.10
2018-03-21T16:01:46.540Z,83.40
2018-03-21T16:04:14.165Z,85.40
2018-03-21T16:06:41.768Z,86.00
2018-03-21T16:09:10.252Z,85.40
2018-03-21T16:11:37.881Z,85.50
2018-03-21T16:14:05.503Z,85.50
2018-03-21T16:16:33.174Z,85.40
2018-03-21T16:19:00.862Z,87.10
2018-03-21T16:21:29.279Z,88.50
2018-03-21T16:23:56.969Z,88.40
2018-03-21T16:26:24.619Z,89.90
2018-03-21T16:28:53.098Z,90.30
2018-03-21T16:31:21.182Z,90.30
2018-03-21T16:33:48.828Z,90.60
2018-03-21T16:36:16.445Z,90.80
2018-03-21T16:38:44.122Z,91.40
2018-03-21T16:41:12.611Z,92.10
2018-03-21T16:43:40.270Z,92.70
2018-03-21T16:46:07.957Z,92.10
2018-03-21T16:48:35.601Z,92.40
2018-03-21T16:51:03.309Z,92.70
2018-03-21T16:53:30.997Z,92.90
2018-03-21T16:55:59.467Z,93.70
2018-03-21T16:58:27.163Z,93.50
2018-03-21T17:00:54.834Z,94.00
2018-03-21T17:03:22.484Z,94.50
2018-03-21T17:05:50.091Z,94.70
2018-03-21T17:08:17.758Z,95.40
2018-03-21T17:10:45.678Z,95.70
2018-03-21T17:13:13.270Z,95.70
2018-03-21T17:15:40.946Z,96.10
2018-03-21T17:18:08.986Z,96.90
2018-03-21T17:20:36.620Z,96.90
2018-03-21T17:23:04.313Z,97.50
2018-03-21T17:25:34.063Z,98.00
2018-03-21T17:28:01.689Z,98.00
2018-03-21T17:30:30.083Z,98.60
2018-03-21T17:32:58.906Z,98.70
2018-03-21T17:35:26.593Z,98.60
2018-03-21T17:37:54.248Z,99.40
2018-03-21T17:40:22.633Z,99.60
2018-03-21T17:42:50.294Z,99.60
2018-03-21T17:45:18.067Z,99.90
2018-03-21T17:47:45.716Z,99.90
2018-03-21T17:50:13.443Z,99.90
2018-03-21T17:52:41.081Z,99.90
2018-03-21T17:55:08.747Z,99.90
2018-03-21T17:57:36.366Z,99.90
2018-03-21T18:00:03.957Z,99.90
2018-03-21T18:02:31.698Z,99.90
2018-03-21T18:04:59.388Z,99.90
2018-03-21T18:07:27.063Z,99.90
2018-03-21T18:09:54.759Z,99.90
2018-03-21T18:12:22.362Z,99.90
2018-03-21T18:14:49.996Z,99.90
2018-03-21T18:17:17.626Z,99.90
2018-03-21T18:19:45.222Z,99.90
2018-03-21T18:22:12.883Z,99.90
2018-03-21T18:24:40.506Z,99.90
2018-03-21T18:27:08.133Z,99.90
2018-03-21T18:29:37.684Z,99.90
2018-03-21T18:32:05.349Z,99.90
2018-03-21T18:34:32.998Z,99.90
2018-03-21T18:37:01.415Z,99.90
2018-03-21T18:39:29.069Z,99.90
2018-03-21T18:41:56.753Z,99.90
2018-03-21T18:44:24.527Z,99.90
2018-03-21T18:46:52.217Z,99.90
2018-03-21T18:49:19.865Z,99.90
2018-03-21T18:51:47.518Z,99.90
2018-03-21T18:54:15.177Z,99.90
2018-03-21T18:56:43.171Z,99.90
2018-03-21T18:59:10.797Z,99.90
2018-03-21T19:01:38.463Z,99.90
2018-03-21T19:04:06.116Z,99.90
2018-03-21T19:06:34.539Z,99.90
2018-03-21T19:09:02.241Z,99.90
2018-03-21T19:11:30.000Z,99.90
2018-03-21T19:13:58.825Z,99.90
2018-03-21T19:16:26.527Z,99.90
2018-03-21T19:18:54.151Z,99.90
2018-03-21T19:21:22.602Z,99.90
2018-03-21T19:23:50.256Z,99.90
2018-03-21T19:26:17.888Z,99.90
2018-03-21T19:28:46.333Z,99.90
2018-03-21T19:31:13.993Z,99.90
2018-03-21T19:33:42.515Z,99.90
2018-03-21T19:36:10.141Z,99.90
2018-03-21T19:38:37.803Z,99.90
2018-03-21T19:41:05.456Z,99.90
2018-03-21T19:43:33.066Z,99.90
2018-03-21T19:46:00.676Z,99.90
2018-03-21T19:48:28.281Z,99.90
2018-03-21T19:50:55.940Z,99.90
2018-03-21T19:53:23.603Z,99.90
2018-03-21T19:55:51.521Z,99.90
2018-03-21T19:58:19.150Z,99.90
2018-03-21T20:00:46.764Z,99.90
2018-03-21T20:03:14.417Z,99.90
2018-03-21T20:05:42.147Z,99.90
2018-03-21T20:08:10.691Z,99.90
2018-03-21T20:10:38.350Z,99.90
2018-03-21T20:13:06.025Z,99.90
2018-03-21T20:15:33.639Z,99.90
2018-03-21T20:18:02.122Z,99.90
2018-03-21T20:20:29.798Z,99.90
2018-03-21T20:22:57.453Z,99.90
2018-03-21T20:25:25.108Z,99.90
2018-03-21T20:27:52.734Z,99.90
2018-03-21T20:30:20.498Z,99.90
2018-03-21T20:32:49.392Z,99.90
2018-03-21T20:35:17.086Z,99.90
2018-03-21T20:37:44.745Z,99.90
2018-03-21T20:40:13.136Z,99.90
2018-03-21T20:42:41.598Z,99.90
2018-03-21T20:45:10.003Z,99.90
2018-03-21T20:47:37.614Z,99.90
2018-03-21T20:50:05.248Z,99.90
2018-03-21T20:52:33.706Z,99.90
2018-03-21T20:55:01.379Z,99.90
2018-03-21T20:57:29.054Z,99.90
2018-03-21T20:59:57.994Z,99.90
2018-03-21T21:02:27.477Z,99.90
2018-03-21T21:04:56.695Z,99.90
2018-03-21T21:07:24.330Z,99.90
2018-03-21T21:09:51.967Z,99.90
2018-03-21T21:12:19.614Z,99.90
2018-03-21T21:14:47.722Z,99.90
2018-03-21T21:17:16.492Z,99.90
2018-03-21T21:19:44.112Z,99.90
2018-03-21T21:22:12.470Z,99.90
2018-03-21T21:24:40.143Z,99.90
2018-03-21T21:27:07.795Z,99.90
2018-03-21T21:29:35.438Z,99.90
2018-03-21T21:32:03.855Z,99.90
2018-03-21T21:34:31.503Z,99.90
2018-03-21T21:36:59.153Z,99.90
2018-03-21T21:39:26.916Z,99.90
2018-03-21T21:41:54.577Z,99.90
2018-03-21T21:44:22.261Z,99.90
2018-03-21T21:46:50.240Z,99.90
2018-03-21T21:49:17.894Z,99.90
2018-03-21T21:51:45.521Z,99.90
2018-03-21T21:54:13.928Z,99.90
2018-03-21T21:56:41.567Z,99.90
2018-03-21T21:59:10.283Z,99.90
2018-03-21T22:01:37.915Z,99.90
2018-03-21T22:04:05.581Z,99.90
2018-03-21T22:06:33.262Z,99.90
2018-03-21T22:09:00.900Z,99.90
2018-03-21T22:11:28.557Z,99.90
2018-03-21T22:13:57.085Z,99.90
2018-03-21T22:16:24.733Z,99.90
2018-03-21T22:18:53.173Z,99.90
2018-03-21T22:21:20.793Z,99.90
2018-03-21T22:23:49.219Z,99.90
2018-03-21T22:26:16.878Z,99.90
2018-03-21T22:28:45.208Z,99.90
2018-03-21T22:31:13.238Z,99.90
2018-03-21T22:33:41.131Z,99.90
2018-03-21T22:36:08.771Z,99.90
2018-03-21T22:38:36.445Z,99.90
2018-03-21T22:41:04.316Z,99.90
2018-03-21T22:43:32.117Z,99.90
2018-03-21T22:45:59.736Z,99.90
2018-03-21T22:48:28.372Z,99.90
2018-03-21T22:50:55.977Z,99.90
2018-03-21T22:53:24.356Z,99.90
2018-03-21T22:55:55.667Z,99.90
2018-03-21T22:58:23.276Z,99.90
2018-03-21T23:00:51.729Z,99.90
2018-03-21T23:03:19.378Z,99.90
2018-03-21T23:05:47.055Z,99.90
2018-03-21T23:08:14.998Z,99.90
2018-03-21T23:10:42.600Z,99.90
2018-03-21T23:13:10.250Z,99.90
2018-03-21T23:15:37.892Z,99.90
2018-03-21T23:18:05.544Z,99.90
2018-03-21T23:20:33.927Z,99.90
2018-03-21T23:23:02.339Z,99.90
2018-03-21T23:25:30.004Z,99.90
2018-03-21T23:27:58.379Z,99.90
2018-03-21T23:30:26.028Z,99.90
2018-03-21T23:32:55.389Z,99.90
2018-03-21T23:35:23.006Z,99.90
2018-03-21T23:37:50.636Z,99.90
2018-03-21T23:40:18.283Z,99.90
2018-03-21T23:42:45.918Z,99.90
2018-03-21T23:45:13.573Z,99.90
2018-03-21T23:47:41.274Z,99.90
2018-03-21T23:50:08.933Z,99.90
2018-03-21T23:52:36.885Z,99.90
2018-03-21T23:55:05.890Z,99.90
2018-03-21T23:57:33.510Z,99.90
